F/v_l'omerta — FHXG — position and weather

sailwx.info

Track history (hours):
 
Tides and Currents Weather Stations Pressure Air Temp Water Temp Dewpoint Dewpoint Depression Visibility Wind Speed Wind Dir Waves Ship Positions

F/v_l'omerta

Last reported at 2014-Jul-30 18:33 UTC. Time now 2014-Jul-30 19:24 UTC.
Position N 46°30' W 001°47'.

Length 18 m.

Type: Fishing. MMSI: 227903000.

Date/timePositionNaut miles runAvg speedWind from/ knotsBaromVisibWave heightAir tempDewpointWater temp
2014-Jul-30 18:33N 46°30' W 001°47'7 6.8
2014-Jul-30 17:33N 46°23' W 001°44'3 3.1
2014-Jul-30 16:33N 46°22' W 001°40'3 3.4
2014-Jul-30 15:33N 46°21' W 001°35'4 3.7
2014-Jul-30 14:33N 46°22' W 001°40'2 1.8
2014-Jul-30 13:33N 46°21' W 001°38'1 0.7
2014-Jul-30 12:33N 46°21' W 001°37'3 2.6
2014-Jul-30 11:33N 46°22' W 001°41'4 4.1
2014-Jul-30 10:33N 46°21' W 001°35'3 2.9
2014-Jul-30 09:33N 46°22' W 001°39'3 2.8
2014-Jul-30 08:32N 46°21' W 001°35'3 3.4
2014-Jul-30 07:33N 46°22' W 001°40'1 1.1
2014-Jul-30 06:33N 46°21' W 001°39'3 2.8
2014-Jul-30 05:33N 46°21' W 001°35'4 3.7
2014-Jul-30 04:33N 46°22' W 001°40'4 3.8
2014-Jul-30 03:33N 46°22' W 001°46'3 2.5
2014-Jul-30 02:33N 46°21' W 001°49'3 3.3
2014-Jul-30 01:33N 46°17' W 001°47'3 3.1
2014-Jul-30 00:33N 46°14' W 001°46'3 3.3
2014-Jul-29 23:33N 46°13' W 001°51'2 2.0
2014-Jul-29 22:33N 46°15' W 001°51'3 3.4
2014-Jul-29 21:33N 46°18' W 001°48'4 4.0
2014-Jul-29 20:33N 46°22' W 001°46'4 4.0
2014-Jul-29 19:33N 46°22' W 001°40'4 3.8
2014-Jul-29 18:33N 46°21' W 001°35'3 3.0
2014-Jul-29 17:33N 46°22' W 001°39'2 2.1
2014-Jul-29 16:33N 46°21' W 001°36'1 1.4
2014-Jul-29 15:33N 46°22' W 001°38'2 2.0
2014-Jul-29 14:33N 46°21' W 001°35'5 4.7
2014-Jul-29 13:33N 46°22' W 001°42'2 2.2
2014-Jul-29 12:33N 46°22' W 001°39'3 2.6
2014-Jul-29 11:33N 46°21' W 001°35'3 2.9
2014-Jul-29 10:33N 46°21' W 001°39'1 1.2
2014-Jul-29 09:33N 46°22' W 001°41'4 3.7
2014-Jul-29 08:33N 46°21' W 001°35'1 1.5
2014-Jul-29 07:33N 46°21' W 001°37'2 1.7
2014-Jul-29 06:33N 46°22' W 001°39'4 3.7
2014-Jul-29 05:33N 46°21' W 001°34'3 3.4
2014-Jul-29 04:33N 46°21' W 001°39'3 3.4
2014-Jul-29 03:33N 46°21' W 001°44'4 3.7
2014-Jul-29 02:33N 46°19' W 001°49'4 3.6
2014-Jul-29 01:33N 46°18' W 001°54'1 1.1
2014-Jul-29 00:33N 46°17' W 001°55'2 1.9
2014-Jul-28 23:33N 46°17' W 001°52'4 3.6
2014-Jul-28 22:33N 46°20' W 001°54'2 2.2
2014-Jul-28 21:30N 46°18' W 001°56'3 3.0
2014-Jul-28 20:33N 46°15' W 001°54'4 3.6
2014-Jul-28 19:33N 46°12' W 001°51'4 3.7
2014-Jul-28 18:22N 46°09' W 001°47'1 0.3
2014-Jul-28 14:24N 46°09' W 001°46'4 4.2
2014-Jul-28 13:30N 46°13' W 001°48'3 3.2
2014-Jul-28 12:33N 46°15' W 001°51'2 2.4
2014-Jul-28 11:33N 46°17' W 001°49'4 3.6
2014-Jul-28 10:33N 46°14' W 001°47'5 2.6
2014-Jul-28 08:33N 46°16' W 001°54'4 3.6
2014-Jul-28 07:31N 46°13' W 001°51'12 2.2
2014-Jul-28 02:07N 46°04' W 001°41'5 3.3
2014-Jul-28 00:28N 46°08' W 001°46'3 3.5
2014-Jul-27 23:33N 46°10' W 001°49'3 3.4
2014-Jul-27 22:33N 46°13' W 001°52'4 3.6
2014-Jul-27 21:33N 46°16' W 001°54'4 4.0
2014-Jul-27 20:33N 46°20' W 001°55'10 9.7
2014-Jul-27 19:33N 46°28' W 001°47'2 1.8
2014-Jul-27 18:33N 46°30' W 001°47'2 1.5
2014-Jul-27 17:33N 46°28' W 001°47'8 7.8
2014-Jul-27 16:33N 46°22' W 001°54'3 3.3
2014-Jul-27 15:33N 46°23' W 001°58'2 1.7
2014-Jul-27 14:33N 46°24' W 001°56'2 2.3
2014-Jul-27 13:33N 46°22' W 001°56'2 2.2
2014-Jul-27 12:32N 46°20' W 001°56'4 3.6
2014-Jul-27 11:33N 46°17' W 001°54'4 3.8
2014-Jul-27 10:33N 46°13' W 001°52'3 3.0
2014-Jul-27 09:33N 46°10' W 001°50'3 3.3
2014-Jul-27 08:33N 46°13' W 001°53'3 3.3
2014-Jul-27 07:32N 46°16' W 001°55'4 3.6
2014-Jul-27 06:33N 46°19' W 001°58'1 1.1
2014-Jul-27 05:19N 46°18' W 001°57'3 3.7
2014-Jul-27 04:33N 46°16' W 001°55'4 3.7
2014-Jul-27 03:32N 46°12' W 001°52'4 3.9
2014-Jul-27 02:33N 46°09' W 001°49'1 0.5
2014-Jul-27 01:25N 46°10' W 001°48'3 3.8
2014-Jul-27 00:33N 46°12' W 001°51'4 3.9
2014-Jul-26 23:33N 46°16' W 001°54'4 3.9
2014-Jul-26 22:33N 46°19' W 001°56'4 3.7
2014-Jul-26 21:33N 46°22' W 001°53'4 3.8
2014-Jul-26 20:33N 46°22' W 001°47'4 4.3
2014-Jul-26 19:33N 46°22' W 001°41'4 3.9
2014-Jul-26 18:33N 46°21' W 001°35'0 0.3
2014-Jul-26 17:33N 46°21' W 001°35'2 2.3
2014-Jul-26 16:33N 46°21' W 001°38'1 1.3
2014-Jul-26 15:33N 46°21' W 001°37'1 0.8
2014-Jul-26 14:33N 46°22' W 001°37'2 2.1
2014-Jul-26 13:33N 46°22' W 001°40'3 3.4
2014-Jul-26 12:33N 46°21' W 001°35'3 2.6
2014-Jul-26 11:33N 46°22' W 001°39'3 2.5
2014-Jul-26 10:33N 46°21' W 001°35'4 4.2
2014-Jul-26 09:33N 46°22' W 001°41'3 3.0
2014-Jul-26 08:33N 46°21' W 001°37'1 1.1
2014-Jul-26 07:33N 46°21' W 001°39'1 1.4
2014-Jul-26 06:33N 46°22' W 001°37'1 1.2
2014-Jul-26 05:33N 46°21' W 001°38'3 2.7
2014-Jul-26 04:33N 46°22' W 001°42'3 3.0
2014-Jul-26 03:33N 46°21' W 001°46'1 1.5
2014-Jul-26 02:33N 46°21' W 001°44'4 3.6
2014-Jul-26 01:33N 46°19' W 001°49'1 1.3
2014-Jul-26 00:33N 46°18' W 001°50'3 2.5
2014-Jul-25 23:33N 46°17' W 001°53'3 3.2
2014-Jul-25 22:32N 46°20' W 001°55'3 3.4
2014-Jul-25 21:33N 46°22' W 001°50'4 3.5
2014-Jul-25 20:33N 46°22' W 001°45'4 4.3
2014-Jul-25 19:33N 46°21' W 001°39'3 2.8
2014-Jul-25 18:33N 46°21' W 001°35'2 1.5
2014-Jul-25 17:33N 46°21' W 001°37'1 1.1
2014-Jul-25 16:33N 46°22' W 001°38'1 0.6
2014-Jul-25 15:33N 46°21' W 001°38'4 3.7
2014-Jul-25 14:33N 46°21' W 001°33'4 3.8
2014-Jul-25 13:33N 46°22' W 001°38'1 1.4
2014-Jul-25 12:33N 46°21' W 001°37'1 1.0
2014-Jul-25 11:33N 46°22' W 001°38'0 0.4
2014-Jul-25 10:33N 46°21' W 001°38'1 0.8
2014-Jul-25 09:33N 46°22' W 001°37'2 2.4
2014-Jul-25 08:33N 46°21' W 001°40'2 2.4
2014-Jul-25 07:33N 46°21' W 001°37'1 1.3
2014-Jul-25 06:33N 46°22' W 001°38'2 2.1
2014-Jul-25 05:33N 46°21' W 001°36'4 3.6
2014-Jul-25 04:33N 46°22' W 001°41'1 0.9
2014-Jul-25 03:33N 46°22' W 001°40'3 3.4
2014-Jul-25 02:33N 46°25' W 001°43'5 5.2
2014-Jul-25 01:33N 46°29' W 001°47'1 0.7
2014-Jul-25 00:33N 46°30' W 001°47'0 0.2
2014-Jul-24 23:33N 46°30' W 001°47'3 3.2
2014-Jul-24 22:33N 46°27' W 001°47'5 5.3
2014-Jul-24 21:33N 46°22' W 001°44'1 1.3
2014-Jul-24 20:33N 46°22' W 001°46'4 4.1
2014-Jul-24 19:33N 46°21' W 001°40'4 4.0
2014-Jul-24 18:33N 46°21' W 001°34'3 3.0
2014-Jul-24 17:33N 46°22' W 001°38'1 0.8
2014-Jul-24 16:33N 46°21' W 001°39'3 2.7
2014-Jul-24 15:33N 46°21' W 001°35'3 3.2
2014-Jul-24 14:33N 46°21' W 001°40'3 3.2
2014-Jul-24 13:33N 46°21' W 001°35'3 3.1
2014-Jul-24 12:33N 46°22' W 001°39'3 2.5
2014-Jul-24 11:33N 46°21' W 001°36'1 1.3
2014-Jul-24 10:33N 46°21' W 001°37'1 1.2
2014-Jul-24 09:33N 46°22' W 001°38'2 2.0
2014-Jul-24 08:33N 46°21' W 001°36'4 3.8
2014-Jul-24 07:33N 46°22' W 001°41'3 3.0
2014-Jul-24 06:33N 46°22' W 001°37'1 0.8
2014-Jul-24 05:33N 46°21' W 001°37'3 2.9
2014-Jul-24 04:33N 46°22' W 001°41'3 3.4
2014-Jul-24 03:33N 46°22' W 001°46'4 3.5
2014-Jul-24 02:33N 46°21' W 001°51'1 1.5
2014-Jul-24 01:33N 46°20' W 001°51'3 3.1
2014-Jul-24 00:33N 46°17' W 001°50'3 2.7
2014-Jul-23 23:33N 46°18' W 001°54'3 2.6
2014-Jul-23 22:33N 46°21' W 001°54'3 2.8
2014-Jul-23 21:33N 46°22' W 001°50'3 3.3
2014-Jul-23 20:33N 46°22' W 001°45'3 3.4
2014-Jul-23 19:33N 46°22' W 001°40'4 3.5
2014-Jul-23 18:33N 46°21' W 001°35'2 2.0
2014-Jul-23 17:33N 46°21' W 001°38'1 0.8
2014-Jul-23 16:33N 46°22' W 001°37'1 0.5
2014-Jul-23 15:33N 46°21' W 001°37'1 1.2
2014-Jul-23 14:33N 46°21' W 001°36'3 2.8
2014-Jul-23 13:33N 46°21' W 001°40'1 0.9
2014-Jul-23 12:33N 46°22' W 001°40'2 1.7
2014-Jul-23 11:33N 46°21' W 001°38'1 0.7
2014-Jul-23 10:33N 46°22' W 001°39'3 3.0
2014-Jul-23 09:33N 46°21' W 001°35'5 4.5
2014-Jul-23 08:33N 46°22' W 001°41'0 0.5
2014-Jul-23 07:33N 46°22' W 001°41'4 4.1
2014-Jul-23 06:33N 46°21' W 001°36'3 2.8
2014-Jul-23 05:33N 46°21' W 001°40'3 3.2
2014-Jul-23 04:33N 46°21' W 001°44'2 1.7
2014-Jul-23 03:33N 46°22' W 001°46'3 2.6
2014-Jul-23 02:33N 46°20' W 001°43'3 3.4
2014-Jul-23 01:33N 46°17' W 001°44'3 3.4
2014-Jul-23 00:33N 46°14' W 001°42'3 3.0
2014-Jul-22 23:33N 46°16' W 001°44'3 3.4
2014-Jul-22 22:33N 46°20' W 001°45'2 2.5
2014-Jul-22 21:33N 46°22' W 001°45'2 1.6
2014-Jul-22 20:33N 46°21' W 001°44'2 2.1
2014-Jul-22 19:33N 46°22' W 001°46'4 3.8
2014-Jul-22 18:33N 46°22' W 001°41'1 0.8
2014-Jul-22 17:33N 46°21' W 001°40'1 1.1
2014-Jul-22 16:33N 46°22' W 001°41'3 3.5
2014-Jul-22 15:33N 46°21' W 001°36'3 2.5
2014-Jul-22 14:33N 46°21' W 001°39'1 1.4
2014-Jul-22 13:33N 46°22' W 001°41'3 3.4
2014-Jul-22 12:33N 46°21' W 001°36'2 2.4
2014-Jul-22 11:33N 46°22' W 001°39'1 1.1
2014-Jul-22 10:33N 46°22' W 001°38'2 1.7
2014-Jul-22 09:32N 46°21' W 001°35'4 4.2
2014-Jul-22 08:32N 46°22' W 001°41'3 3.4
2014-Jul-22 07:33N 46°22' W 001°36'2 1.8
2014-Jul-22 06:33N 46°21' W 001°39'3 2.8
2014-Jul-22 05:33N 46°21' W 001°43'3 3.2
2014-Jul-22 04:33N 46°19' W 001°47'3 3.2
2014-Jul-22 03:33N 46°18' W 001°51'3 2.7
2014-Jul-22 02:33N 46°16' W 001°54'3 3.4
2014-Jul-22 01:33N 46°13' W 001°52'  
Track history (hours):
 
Tides and Currents Weather Stations Pressure Air Temp Water Temp Dewpoint Dewpoint Depression Visibility Wind Speed Wind Dir Waves Ship Positions

F/v_l'omerta

Last reported at 2014-Jul-30 18:33 UTC. Time now 2014-Jul-30 19:24 UTC.
Position N 46°30' W 001°47'.

Length 18 m.

Type: Fishing. MMSI: 227903000.

Date/timePositionNaut miles runAvg speedWind from/ knotsBaromVisibWave heightAir tempDewpointWater temp
2014-Jul-30 18:33N 46°30' W 001°47'7 6.8
2014-Jul-30 17:33N 46°23' W 001°44'3 3.1
2014-Jul-30 16:33N 46°22' W 001°40'3 3.4
2014-Jul-30 15:33N 46°21' W 001°35'4 3.7
2014-Jul-30 14:33N 46°22' W 001°40'2 1.8
2014-Jul-30 13:33N 46°21' W 001°38'1 0.7
2014-Jul-30 12:33N 46°21' W 001°37'3 2.6
2014-Jul-30 11:33N 46°22' W 001°41'4 4.1
2014-Jul-30 10:33N 46°21' W 001°35'3 2.9
2014-Jul-30 09:33N 46°22' W 001°39'3 2.8
2014-Jul-30 08:32N 46°21' W 001°35'3 3.4
2014-Jul-30 07:33N 46°22' W 001°40'1 1.1
2014-Jul-30 06:33N 46°21' W 001°39'3 2.8
2014-Jul-30 05:33N 46°21' W 001°35'4 3.7
2014-Jul-30 04:33N 46°22' W 001°40'4 3.8
2014-Jul-30 03:33N 46°22' W 001°46'3 2.5
2014-Jul-30 02:33N 46°21' W 001°49'3 3.3
2014-Jul-30 01:33N 46°17' W 001°47'3 3.1
2014-Jul-30 00:33N 46°14' W 001°46'3 3.3
2014-Jul-29 23:33N 46°13' W 001°51'2 2.0
2014-Jul-29 22:33N 46°15' W 001°51'3 3.4
2014-Jul-29 21:33N 46°18' W 001°48'4 4.0
2014-Jul-29 20:33N 46°22' W 001°46'4 4.0
2014-Jul-29 19:33N 46°22' W 001°40'4 3.8
2014-Jul-29 18:33N 46°21' W 001°35'3 3.0
2014-Jul-29 17:33N 46°22' W 001°39'2 2.1
2014-Jul-29 16:33N 46°21' W 001°36'1 1.4
2014-Jul-29 15:33N 46°22' W 001°38'2 2.0
2014-Jul-29 14:33N 46°21' W 001°35'5 4.7
2014-Jul-29 13:33N 46°22' W 001°42'2 2.2
2014-Jul-29 12:33N 46°22' W 001°39'3 2.6
2014-Jul-29 11:33N 46°21' W 001°35'3 2.9
2014-Jul-29 10:33N 46°21' W 001°39'1 1.2
2014-Jul-29 09:33N 46°22' W 001°41'4 3.7
2014-Jul-29 08:33N 46°21' W 001°35'1 1.5
2014-Jul-29 07:33N 46°21' W 001°37'2 1.7
2014-Jul-29 06:33N 46°22' W 001°39'4 3.7
2014-Jul-29 05:33N 46°21' W 001°34'3 3.4
2014-Jul-29 04:33N 46°21' W 001°39'3 3.4
2014-Jul-29 03:33N 46°21' W 001°44'4 3.7
2014-Jul-29 02:33N 46°19' W 001°49'4 3.6
2014-Jul-29 01:33N 46°18' W 001°54'1 1.1
2014-Jul-29 00:33N 46°17' W 001°55'2 1.9
2014-Jul-28 23:33N 46°17' W 001°52'4 3.6
2014-Jul-28 22:33N 46°20' W 001°54'2 2.2
2014-Jul-28 21:30N 46°18' W 001°56'3 3.0
2014-Jul-28 20:33N 46°15' W 001°54'4 3.6
2014-Jul-28 19:33N 46°12' W 001°51'4 3.7
2014-Jul-28 18:22N 46°09' W 001°47'1 0.3
2014-Jul-28 14:24N 46°09' W 001°46'4 4.2
2014-Jul-28 13:30N 46°13' W 001°48'3 3.2
2014-Jul-28 12:33N 46°15' W 001°51'2 2.4
2014-Jul-28 11:33N 46°17' W 001°49'4 3.6
2014-Jul-28 10:33N 46°14' W 001°47'5 2.6
2014-Jul-28 08:33N 46°16' W 001°54'4 3.6
2014-Jul-28 07:31N 46°13' W 001°51'12 2.2
2014-Jul-28 02:07N 46°04' W 001°41'5 3.3
2014-Jul-28 00:28N 46°08' W 001°46'3 3.5
2014-Jul-27 23:33N 46°10' W 001°49'3 3.4
2014-Jul-27 22:33N 46°13' W 001°52'4 3.6
2014-Jul-27 21:33N 46°16' W 001°54'4 4.0
2014-Jul-27 20:33N 46°20' W 001°55'10 9.7
2014-Jul-27 19:33N 46°28' W 001°47'2 1.8
2014-Jul-27 18:33N 46°30' W 001°47'2 1.5
2014-Jul-27 17:33N 46°28' W 001°47'8 7.8
2014-Jul-27 16:33N 46°22' W 001°54'3 3.3
2014-Jul-27 15:33N 46°23' W 001°58'2 1.7
2014-Jul-27 14:33N 46°24' W 001°56'2 2.3
2014-Jul-27 13:33N 46°22' W 001°56'2 2.2
2014-Jul-27 12:32N 46°20' W 001°56'4 3.6
2014-Jul-27 11:33N 46°17' W 001°54'4 3.8
2014-Jul-27 10:33N 46°13' W 001°52'3 3.0
2014-Jul-27 09:33N 46°10' W 001°50'3 3.3
2014-Jul-27 08:33N 46°13' W 001°53'3 3.3
2014-Jul-27 07:32N 46°16' W 001°55'4 3.6
2014-Jul-27 06:33N 46°19' W 001°58'1 1.1
2014-Jul-27 05:19N 46°18' W 001°57'3 3.7
2014-Jul-27 04:33N 46°16' W 001°55'4 3.7
2014-Jul-27 03:32N 46°12' W 001°52'4 3.9
2014-Jul-27 02:33N 46°09' W 001°49'1 0.5
2014-Jul-27 01:25N 46°10' W 001°48'3 3.8
2014-Jul-27 00:33N 46°12' W 001°51'4 3.9
2014-Jul-26 23:33N 46°16' W 001°54'4 3.9
2014-Jul-26 22:33N 46°19' W 001°56'4 3.7
2014-Jul-26 21:33N 46°22' W 001°53'4 3.8
2014-Jul-26 20:33N 46°22' W 001°47'4 4.3
2014-Jul-26 19:33N 46°22' W 001°41'4 3.9
2014-Jul-26 18:33N 46°21' W 001°35'0 0.3
2014-Jul-26 17:33N 46°21' W 001°35'2 2.3
2014-Jul-26 16:33N 46°21' W 001°38'1 1.3
2014-Jul-26 15:33N 46°21' W 001°37'1 0.8
2014-Jul-26 14:33N 46°22' W 001°37'2 2.1
2014-Jul-26 13:33N 46°22' W 001°40'3 3.4
2014-Jul-26 12:33N 46°21' W 001°35'3 2.6
2014-Jul-26 11:33N 46°22' W 001°39'3 2.5
2014-Jul-26 10:33N 46°21' W 001°35'4 4.2
2014-Jul-26 09:33N 46°22' W 001°41'3 3.0
2014-Jul-26 08:33N 46°21' W 001°37'1 1.1
2014-Jul-26 07:33N 46°21' W 001°39'1 1.4
2014-Jul-26 06:33N 46°22' W 001°37'1 1.2
2014-Jul-26 05:33N 46°21' W 001°38'3 2.7
2014-Jul-26 04:33N 46°22' W 001°42'3 3.0
2014-Jul-26 03:33N 46°21' W 001°46'1 1.5
2014-Jul-26 02:33N 46°21' W 001°44'4 3.6
2014-Jul-26 01:33N 46°19' W 001°49'1 1.3
2014-Jul-26 00:33N 46°18' W 001°50'3 2.5
2014-Jul-25 23:33N 46°17' W 001°53'3 3.2
2014-Jul-25 22:32N 46°20' W 001°55'3 3.4
2014-Jul-25 21:33N 46°22' W 001°50'4 3.5
2014-Jul-25 20:33N 46°22' W 001°45'4 4.3
2014-Jul-25 19:33N 46°21' W 001°39'3 2.8
2014-Jul-25 18:33N 46°21' W 001°35'2 1.5
2014-Jul-25 17:33N 46°21' W 001°37'1 1.1
2014-Jul-25 16:33N 46°22' W 001°38'1 0.6
2014-Jul-25 15:33N 46°21' W 001°38'4 3.7
2014-Jul-25 14:33N 46°21' W 001°33'4 3.8
2014-Jul-25 13:33N 46°22' W 001°38'1 1.4
2014-Jul-25 12:33N 46°21' W 001°37'1 1.0
2014-Jul-25 11:33N 46°22' W 001°38'0 0.4
2014-Jul-25 10:33N 46°21' W 001°38'1 0.8
2014-Jul-25 09:33N 46°22' W 001°37'2 2.4
2014-Jul-25 08:33N 46°21' W 001°40'2 2.4
2014-Jul-25 07:33N 46°21' W 001°37'1 1.3
2014-Jul-25 06:33N 46°22' W 001°38'2 2.1
2014-Jul-25 05:33N 46°21' W 001°36'4 3.6
2014-Jul-25 04:33N 46°22' W 001°41'1 0.9
2014-Jul-25 03:33N 46°22' W 001°40'3 3.4
2014-Jul-25 02:33N 46°25' W 001°43'5 5.2
2014-Jul-25 01:33N 46°29' W 001°47'1 0.7
2014-Jul-25 00:33N 46°30' W 001°47'0 0.2
2014-Jul-24 23:33N 46°30' W 001°47'3 3.2
2014-Jul-24 22:33N 46°27' W 001°47'5 5.3
2014-Jul-24 21:33N 46°22' W 001°44'1 1.3
2014-Jul-24 20:33N 46°22' W 001°46'4 4.1
2014-Jul-24 19:33N 46°21' W 001°40'4 4.0
2014-Jul-24 18:33N 46°21' W 001°34'3 3.0
2014-Jul-24 17:33N 46°22' W 001°38'1 0.8
2014-Jul-24 16:33N 46°21' W 001°39'3 2.7
2014-Jul-24 15:33N 46°21' W 001°35'3 3.2
2014-Jul-24 14:33N 46°21' W 001°40'3 3.2
2014-Jul-24 13:33N 46°21' W 001°35'3 3.1
2014-Jul-24 12:33N 46°22' W 001°39'3 2.5
2014-Jul-24 11:33N 46°21' W 001°36'1 1.3
2014-Jul-24 10:33N 46°21' W 001°37'1 1.2
2014-Jul-24 09:33N 46°22' W 001°38'2 2.0
2014-Jul-24 08:33N 46°21' W 001°36'4 3.8
2014-Jul-24 07:33N 46°22' W 001°41'3 3.0
2014-Jul-24 06:33N 46°22' W 001°37'1 0.8
2014-Jul-24 05:33N 46°21' W 001°37'3 2.9
2014-Jul-24 04:33N 46°22' W 001°41'3 3.4
2014-Jul-24 03:33N 46°22' W 001°46'4 3.5
2014-Jul-24 02:33N 46°21' W 001°51'1 1.5
2014-Jul-24 01:33N 46°20' W 001°51'3 3.1
2014-Jul-24 00:33N 46°17' W 001°50'3 2.7
2014-Jul-23 23:33N 46°18' W 001°54'3 2.6
2014-Jul-23 22:33N 46°21' W 001°54'3 2.8
2014-Jul-23 21:33N 46°22' W 001°50'3 3.3
2014-Jul-23 20:33N 46°22' W 001°45'3 3.4
2014-Jul-23 19:33N 46°22' W 001°40'4 3.5
2014-Jul-23 18:33N 46°21' W 001°35'2 2.0
2014-Jul-23 17:33N 46°21' W 001°38'1 0.8
2014-Jul-23 16:33N 46°22' W 001°37'1 0.5
2014-Jul-23 15:33N 46°21' W 001°37'1 1.2
2014-Jul-23 14:33N 46°21' W 001°36'3 2.8
2014-Jul-23 13:33N 46°21' W 001°40'1 0.9
2014-Jul-23 12:33N 46°22' W 001°40'2 1.7
2014-Jul-23 11:33N 46°21' W 001°38'1 0.7
2014-Jul-23 10:33N 46°22' W 001°39'3 3.0
2014-Jul-23 09:33N 46°21' W 001°35'5 4.5
2014-Jul-23 08:33N 46°22' W 001°41'0 0.5
2014-Jul-23 07:33N 46°22' W 001°41'4 4.1
2014-Jul-23 06:33N 46°21' W 001°36'3 2.8
2014-Jul-23 05:33N 46°21' W 001°40'3 3.2
2014-Jul-23 04:33N 46°21' W 001°44'2 1.7
2014-Jul-23 03:33N 46°22' W 001°46'3 2.6
2014-Jul-23 02:33N 46°20' W 001°43'3 3.4
2014-Jul-23 01:33N 46°17' W 001°44'3 3.4
2014-Jul-23 00:33N 46°14' W 001°42'3 3.0
2014-Jul-22 23:33N 46°16' W 001°44'3 3.4
2014-Jul-22 22:33N 46°20' W 001°45'2 2.5
2014-Jul-22 21:33N 46°22' W 001°45'2 1.6
2014-Jul-22 20:33N 46°21' W 001°44'2 2.1
2014-Jul-22 19:33N 46°22' W 001°46'4 3.8
2014-Jul-22 18:33N 46°22' W 001°41'1 0.8
2014-Jul-22 17:33N 46°21' W 001°40'1 1.1
2014-Jul-22 16:33N 46°22' W 001°41'3 3.5
2014-Jul-22 15:33N 46°21' W 001°36'3 2.5
2014-Jul-22 14:33N 46°21' W 001°39'1 1.4
2014-Jul-22 13:33N 46°22' W 001°41'3 3.4
2014-Jul-22 12:33N 46°21' W 001°36'2 2.4
2014-Jul-22 11:33N 46°22' W 001°39'1 1.1
2014-Jul-22 10:33N 46°22' W 001°38'2 1.7
2014-Jul-22 09:32N 46°21' W 001°35'4 4.2
2014-Jul-22 08:32N 46°22' W 001°41'3 3.4
2014-Jul-22 07:33N 46°22' W 001°36'2 1.8
2014-Jul-22 06:33N 46°21' W 001°39'3 2.8
2014-Jul-22 05:33N 46°21' W 001°43'3 3.2
2014-Jul-22 04:33N 46°19' W 001°47'3 3.2
2014-Jul-22 03:33N 46°18' W 001°51'3 2.7
2014-Jul-22 02:33N 46°16' W 001°54'3 3.4
2014-Jul-22 01:33N 46°13' W 001°52'  

Dump ship's entire track history